Time;durP1;ratioP1;P1;durP2;ratioP2;P2;SDS_P1;SDS_P2;PMS_P1;PMS_P2;Temp;Humidity;BMP_temperature;BMP_pressure;BME280_temperature;BME280_humidity;BME280_pressure;Samples;Min_cycle;Max_cycle;Signal;HPM_P1;HPM_P2
2023/05/26 00:00:06;;;;;;;10.77;10.17;;;17.30;22.00;;;;;;5070843;28;20654;-46
2023/05/26 00:02:36;;;;;;;10.83;10.13;;;17.40;22.00;;;;;;5071485;28;20413;-48
2023/05/26 00:05:03;;;;;;;11.17;10.53;;;17.40;22.20;;;;;;5067448;28;20768;-44
2023/05/26 00:07:29;;;;;;;10.80;10.10;;;17.40;21.60;;;;;;5069551;28;20409;-47
2023/05/26 00:09:55;;;;;;;10.67;9.87;;;17.40;21.90;;;;;;5071460;28;20439;-48
2023/05/26 00:12:20;;;;;;;10.53;9.70;;;17.40;22.00;;;;;;5068825;28;20215;-48
2023/05/26 00:14:46;;;;;;;10.43;9.73;;;17.30;22.10;;;;;;5070935;28;20578;-46
2023/05/26 00:17:12;;;;;;;11.47;10.57;;;17.30;22.20;;;;;;5068544;28;20580;-50
2023/05/26 00:19:38;;;;;;;10.90;10.30;;;17.30;22.00;;;;;;5068234;28;20181;-45
2023/05/26 00:22:05;;;;;;;10.23;9.73;;;17.30;22.00;;;;;;5067857;28;20978;-45
2023/05/26 00:24:30;;;;;;;11.53;10.83;;;17.30;22.30;;;;;;5068823;28;20459;-47
2023/05/26 00:26:56;;;;;;;11.17;10.47;;;17.30;22.40;;;;;;5068125;28;20554;-46
2023/05/26 00:29:21;;;;;;;12.40;11.30;;;17.30;21.70;;;;;;5068645;28;20189;-46
2023/05/26 00:31:47;;;;;;;12.60;11.30;;;17.20;22.30;;;;;;5066514;28;20572;-51
2023/05/26 00:34:13;;;;;;;12.50;11.70;;;17.20;22.40;;;;;;5067456;28;20265;-49
2023/05/26 00:36:38;;;;;;;11.37;10.67;;;17.20;22.70;;;;;;5067064;28;20179;-48
2023/05/26 00:39:04;;;;;;;11.33;10.63;;;17.20;22.30;;;;;;5068004;28;20194;-46
2023/05/26 00:41:30;;;;;;;11.30;10.57;;;17.30;22.40;;;;;;5069560;28;20265;-46
2023/05/26 00:43:55;;;;;;;10.67;10.07;;;17.30;22.00;;;;;;5067148;28;20178;-49
2023/05/26 00:46:21;;;;;;;12.60;11.10;;;17.20;22.90;;;;;;5067913;28;20187;-48
2023/05/26 00:48:47;;;;;;;11.40;10.50;;;17.20;22.60;;;;;;5072675;28;20181;-48
2023/05/26 00:51:13;;;;;;;11.07;10.47;;;17.20;22.30;;;;;;5071168;28;20573;-50
2023/05/26 00:53:43;;;;;;;10.50;10.00;;;17.30;22.20;;;;;;5071680;28;20247;-52
2023/05/26 00:56:16;;;;;;;10.97;10.37;;;17.20;22.40;;;;;;5069869;28;20432;-46
2023/05/26 00:58:42;;;;;;;11.07;10.47;;;17.20;22.60;;;;;;5071928;28;20404;-51
2023/05/26 01:01:09;;;;;;;11.77;10.93;;;17.20;22.40;;;;;;5069129;28;20420;-48
2023/05/26 01:03:37;;;;;;;12.50;11.27;;;17.20;22.60;;;;;;5073274;28;20457;-48
2023/05/26 01:06:03;;;;;;;12.20;11.40;;;17.10;22.30;;;;;;5071255;28;20553;-50
2023/05/26 01:08:29;;;;;;;11.47;10.87;;;16.90;22.90;;;;;;5072000;28;20900;-46
2023/05/26 01:11:00;;;;;;;12.67;11.40;;;17.00;23.10;;;;;;5071333;28;20475;-47
2023/05/26 01:13:30;;;;;;;12.50;11.60;;;17.00;22.90;;;;;;5070609;28;20420;-50
2023/05/26 01:16:01;;;;;;;12.17;11.27;;;17.00;23.40;;;;;;5072084;28;20412;-48
2023/05/26 01:18:45;;;;;;;11.30;10.70;;;17.00;22.80;;;;;;5068852;28;20965;-48
2023/05/26 01:21:15;;;;;;;13.43;12.23;;;17.00;22.90;;;;;;5070413;28;20416;-47
2023/05/26 01:23:49;;;;;;;11.23;10.53;;;17.00;22.90;;;;;;5071427;28;20469;-48
2023/05/26 01:26:36;;;;;;;11.23;10.40;;;17.00;22.70;;;;;;5072270;28;20900;-48
2023/05/26 01:29:10;;;;;;;11.13;10.47;;;17.00;23.10;;;;;;5071460;28;20942;-45
2023/05/26 01:31:38;;;;;;;11.63;10.80;;;17.10;22.80;;;;;;5070745;28;20516;-47
2023/05/26 01:34:04;;;;;;;11.23;10.43;;;17.10;22.60;;;;;;5071231;28;20432;-45
2023/05/26 01:36:30;;;;;;;11.80;11.10;;;17.10;22.60;;;;;;5069206;28;20420;-49
2023/05/26 01:38:56;;;;;;;11.63;10.93;;;17.20;23.20;;;;;;5070340;28;20451;-47
2023/05/26 01:41:21;;;;;;;12.70;11.80;;;17.20;22.70;;;;;;5070820;28;20460;-50
2023/05/26 01:43:59;;;;;;;13.07;12.07;;;17.10;22.60;;;;;;5071546;28;20460;-45
2023/05/26 01:46:50;;;;;;;11.60;10.73;;;17.00;22.50;;;;;;5070600;28;20193;-46
2023/05/26 01:49:18;;;;;;;12.17;11.30;;;17.00;23.00;;;;;;5070454;28;20431;-47
2023/05/26 01:51:51;;;;;;;12.70;11.80;;;17.00;23.10;;;;;;5070868;28;20464;-47
2023/05/26 01:54:20;;;;;;;12.10;11.20;;;16.90;23.20;;;;;;5068365;28;20786;-45
2023/05/26 01:56:47;;;;;;;11.43;10.83;;;16.90;23.40;;;;;;5070972;28;20428;-49
2023/05/26 01:59:13;;;;;;;12.70;11.80;;;16.90;22.90;;;;;;5068541;28;20424;-51
2023/05/26 02:01:57;;;;;;;12.70;11.60;;;16.90;23.00;;;;;;5068129;28;20931;-45
2023/05/26 02:04:23;;;;;;;11.87;11.10;;;17.00;23.20;;;;;;5069823;28;20408;-47
2023/05/26 02:06:50;;;;;;;11.00;10.30;;;17.00;22.90;;;;;;5069386;28;20425;-47
2023/05/26 02:09:16;;;;;;;11.80;11.20;;;17.00;22.90;;;;;;5069787;28;20178;-47
2023/05/26 02:11:42;;;;;;;12.10;11.20;;;17.10;22.70;;;;;;5067638;28;20464;-51
2023/05/26 02:14:07;;;;;;;12.30;11.50;;;17.00;22.70;;;;;;5063701;28;20270;-50
2023/05/26 02:16:33;;;;;;;12.43;11.30;;;17.00;22.90;;;;;;5051009;28;20183;-47
2023/05/26 02:18:58;;;;;;;12.73;11.50;;;17.00;22.90;;;;;;5049756;28;20236;-47
2023/05/26 02:21:24;;;;;;;13.03;11.83;;;17.00;22.70;;;;;;5068886;28;20226;-51
2023/05/26 02:23:50;;;;;;;11.73;10.83;;;17.00;22.60;;;;;;5067933;28;20709;-48
2023/05/26 02:26:15;;;;;;;10.93;10.33;;;17.10;22.60;;;;;;5068292;28;20197;-48
2023/05/26 02:28:41;;;;;;;13.03;11.93;;;17.10;22.90;;;;;;5070911;28;20190;-47
2023/05/26 02:31:07;;;;;;;11.90;11.10;;;17.00;22.70;;;;;;5067754;28;20210;-49
2023/05/26 02:33:33;;;;;;;12.37;11.37;;;17.00;23.60;;;;;;5069152;28;20409;-50
2023/05/26 02:35:58;;;;;;;12.30;11.50;;;17.00;23.50;;;;;;5070066;28;20219;-51
2023/05/26 02:38:24;;;;;;;12.90;11.90;;;17.00;23.10;;;;;;5066431;28;20186;-47
2023/05/26 02:40:50;;;;;;;13.40;12.47;;;17.00;23.10;;;;;;5065531;28;20810;-49
2023/05/26 02:43:16;;;;;;;11.67;11.00;;;17.00;23.10;;;;;;5068538;28;20642;-49
2023/05/26 02:45:42;;;;;;;13.30;12.20;;;17.00;23.10;;;;;;5067607;28;20319;-51
2023/05/26 02:48:08;;;;;;;13.20;12.20;;;16.90;23.10;;;;;;5068575;28;20519;-46
2023/05/26 02:50:33;;;;;;;13.40;12.30;;;16.90;23.20;;;;;;5068917;28;20206;-51
2023/05/26 02:52:59;;;;;;;11.73;10.90;;;16.80;23.30;;;;;;5066849;28;20178;-44
2023/05/26 02:55:25;;;;;;;13.03;12.33;;;16.80;23.70;;;;;;5068516;28;20179;-50
2023/05/26 02:57:51;;;;;;;13.57;12.83;;;16.80;23.60;;;;;;5066026;28;20615;-52
2023/05/26 03:00:17;;;;;;;12.37;11.37;;;16.70;23.60;;;;;;5066471;28;20230;-45
2023/05/26 03:02:43;;;;;;;12.80;12.10;;;16.70;24.40;;;;;;5066863;28;20424;-46
2023/05/26 03:05:09;;;;;;;13.43;12.53;;;16.70;23.90;;;;;;5068682;28;20409;-46
2023/05/26 03:07:35;;;;;;;12.83;12.13;;;16.70;23.80;;;;;;5066682;28;20428;-46
2023/05/26 03:10:01;;;;;;;14.20;13.20;;;16.70;23.60;;;;;;5065558;28;20429;-46
2023/05/26 03:12:26;;;;;;;13.53;12.50;;;16.60;23.90;;;;;;5067950;28;20210;-45
2023/05/26 03:14:53;;;;;;;13.70;12.70;;;16.70;23.90;;;;;;5065620;28;20520;-52
2023/05/26 03:17:18;;;;;;;12.57;11.73;;;16.70;24.40;;;;;;5065576;28;20236;-47
2023/05/26 03:19:45;;;;;;;13.33;12.60;;;16.70;23.90;;;;;;5085287;28;20993;-48
2023/05/26 03:22:10;;;;;;;13.73;12.80;;;16.70;23.50;;;;;;5065807;28;20183;-48
2023/05/26 03:24:36;;;;;;;13.67;12.60;;;16.70;23.60;;;;;;5064946;28;21065;-45
2023/05/26 03:27:02;;;;;;;14.10;13.10;;;16.60;23.70;;;;;;5065914;28;20817;-47
2023/05/26 03:29:29;;;;;;;14.30;13.13;;;16.60;23.70;;;;;;5083921;28;20182;-47
2023/05/26 03:31:55;;;;;;;13.73;12.93;;;16.60;23.80;;;;;;5064718;28;20255;-48
2023/05/26 03:34:21;;;;;;;12.50;11.80;;;16.60;24.20;;;;;;5066131;28;20404;-44
2023/05/26 03:36:48;;;;;;;13.67;12.40;;;16.70;24.10;;;;;;5065882;28;20421;-45
2023/05/26 03:39:14;;;;;;;13.77;12.97;;;16.70;24.10;;;;;;5065378;28;20420;-45
2023/05/26 03:41:40;;;;;;;12.70;12.00;;;16.60;23.80;;;;;;5066144;28;20901;-44
2023/05/26 03:44:06;;;;;;;14.10;13.20;;;16.60;24.60;;;;;;5064838;28;20447;-49
2023/05/26 03:46:32;;;;;;;13.30;12.50;;;16.60;24.30;;;;;;5065542;28;20179;-51
2023/05/26 03:48:58;;;;;;;14.00;13.10;;;16.50;24.40;;;;;;5065535;28;21316;-49
2023/05/26 03:51:23;;;;;;;13.27;12.43;;;16.50;24.10;;;;;;5065022;28;20214;-45
2023/05/26 03:53:49;;;;;;;14.07;13.10;;;16.50;24.20;;;;;;5055458;28;20202;-45
2023/05/26 03:56:15;;;;;;;15.43;14.17;;;16.40;24.50;;;;;;5044350;28;20202;-48
2023/05/26 03:58:40;;;;;;;14.20;13.30;;;16.40;24.60;;;;;;5046344;28;20266;-46
2023/05/26 04:01:07;;;;;;;13.30;12.50;;;16.20;25.70;;;;;;5030222;28;20190;-46
2023/05/26 04:03:33;;;;;;;13.40;12.60;;;16.20;25.10;;;;;;5047448;28;20301;-44
2023/05/26 04:06:00;;;;;;;12.60;11.67;;;16.30;24.70;;;;;;5045090;28;20509;-53
2023/05/26 04:08:26;;;;;;;14.53;13.47;;;16.30;25.00;;;;;;5046835;28;20910;-46
2023/05/26 04:10:52;;;;;;;15.43;14.20;;;16.30;24.80;;;;;;5046692;28;21003;-47
2023/05/26 04:13:17;;;;;;;14.23;13.30;;;16.30;25.00;;;;;;5046512;28;20417;-48
2023/05/26 04:15:43;;;;;;;15.90;14.63;;;16.30;25.00;;;;;;5046880;28;20187;-48
2023/05/26 04:18:08;;;;;;;14.17;13.40;;;16.40;24.80;;;;;;5046189;28;20187;-46
2023/05/26 04:20:34;;;;;;;16.10;15.00;;;16.50;25.00;;;;;;5050212;28;20230;-46
2023/05/26 04:23:00;;;;;;;15.33;14.30;;;16.40;24.50;;;;;;5049361;28;20179;-47
2023/05/26 04:25:25;;;;;;;15.50;14.60;;;16.40;25.20;;;;;;5050715;28;20240;-45
2023/05/26 04:27:57;;;;;;;14.67;13.57;;;16.40;25.00;;;;;;5049530;28;20182;-48
2023/05/26 04:30:23;;;;;;;16.47;14.80;;;16.30;24.90;;;;;;5055035;28;20186;-47
2023/05/26 04:32:49;;;;;;;14.57;13.67;;;16.30;25.10;;;;;;5066292;28;20422;-46
2023/05/26 04:35:15;;;;;;;15.67;14.53;;;16.30;24.70;;;;;;5070224;28;20432;-49
2023/05/26 04:37:42;;;;;;;14.07;13.17;;;16.40;24.50;;;;;;5067932;28;20175;-48
2023/05/26 04:40:09;;;;;;;14.97;14.10;;;16.50;24.70;;;;;;5069573;28;20428;-46
2023/05/26 04:42:36;;;;;;;14.07;13.10;;;16.60;25.20;;;;;;5068085;28;20429;-50
2023/05/26 04:45:06;;;;;;;14.67;13.63;;;16.60;25.60;;;;;;5069375;28;20937;-42
2023/05/26 04:47:34;;;;;;;14.70;13.60;;;16.60;24.80;;;;;;5066540;28;20835;-44
2023/05/26 04:50:01;;;;;;;14.57;13.40;;;16.60;24.70;;;;;;5068034;28;20461;-43
2023/05/26 04:52:27;;;;;;;14.07;13.17;;;16.60;24.60;;;;;;5069185;28;20829;-44
2023/05/26 04:54:56;;;;;;;13.60;12.70;;;16.50;24.40;;;;;;5053345;28;20520;-46
2023/05/26 04:57:22;;;;;;;14.47;13.57;;;16.60;24.60;;;;;;5052861;28;20186;-50
2023/05/26 04:59:47;;;;;;;14.67;13.67;;;16.60;24.50;;;;;;5053001;28;20508;-44
2023/05/26 05:02:13;;;;;;;15.43;14.43;;;16.60;24.40;;;;;;5053390;28;20224;-45
2023/05/26 05:04:45;;;;;;;15.07;14.00;;;16.60;24.50;;;;;;5051281;28;20191;-46
2023/05/26 05:07:10;;;;;;;15.30;14.03;;;16.60;24.60;;;;;;5053410;28;20547;-45
2023/05/26 05:09:36;;;;;;;14.40;13.27;;;16.60;24.40;;;;;;5053291;28;20422;-49
2023/05/26 05:12:02;;;;;;;14.93;14.13;;;16.60;24.40;;;;;;5052771;28;20610;-45
2023/05/26 05:14:28;;;;;;;14.60;13.60;;;16.60;24.60;;;;;;5053280;28;20270;-45
2023/05/26 05:16:54;;;;;;;16.00;15.00;;;16.50;24.40;;;;;;5053933;28;20437;-45
2023/05/26 05:19:19;;;;;;;15.23;14.20;;;16.50;24.40;;;;;;5053381;28;20453;-47
2023/05/26 05:21:45;;;;;;;16.40;15.10;;;16.50;24.70;;;;;;5052664;28;20228;-45
2023/05/26 05:24:11;;;;;;;15.83;14.70;;;16.50;24.60;;;;;;5052910;28;20541;-46
2023/05/26 05:26:37;;;;;;;17.10;15.80;;;16.40;24.50;;;;;;5052344;28;20195;-49
2023/05/26 05:29:04;;;;;;;14.83;13.93;;;16.30;25.00;;;;;;5051410;28;20187;-46
2023/05/26 05:31:30;;;;;;;16.40;15.00;;;16.30;25.20;;;;;;5069515;28;20812;-52
2023/05/26 05:33:55;;;;;;;16.47;15.17;;;16.30;25.20;;;;;;5053287;28;20416;-46
2023/05/26 05:36:21;;;;;;;17.70;16.40;;;16.40;25.50;;;;;;5055966;28;20175;-47
2023/05/26 05:38:47;;;;;;;14.90;14.07;;;16.40;26.30;;;;;;5056669;28;20207;-51
2023/05/26 05:41:14;;;;;;;16.20;15.10;;;16.40;26.10;;;;;;5056220;28;20183;-48
2023/05/26 05:43:39;;;;;;;16.00;14.70;;;16.50;25.60;;;;;;5055401;28;20183;-52
2023/05/26 05:46:05;;;;;;;15.73;14.50;;;16.50;25.50;;;;;;5055896;28;20429;-53
2023/05/26 05:48:31;;;;;;;16.17;15.07;;;16.50;25.20;;;;;;5056248;28;20190;-49
2023/05/26 05:50:56;;;;;;;15.70;14.60;;;16.50;25.70;;;;;;5056661;28;20207;-49
2023/05/26 05:53:22;;;;;;;15.33;14.13;;;16.50;25.80;;;;;;5054914;28;20183;-47
2023/05/26 05:55:47;;;;;;;15.13;13.77;;;16.50;26.30;;;;;;5054910;28;20175;-50
2023/05/26 05:58:27;;;;;;;15.70;14.60;;;16.50;26.10;;;;;;5055183;28;20179;-45
2023/05/26 06:00:52;;;;;;;16.20;14.70;;;16.60;26.20;;;;;;5054286;28;20302;-49
2023/05/26 06:03:18;;;;;;;14.20;13.30;;;16.60;25.20;;;;;;5052946;28;20508;-50
2023/05/26 06:05:43;;;;;;;15.90;14.80;;;16.60;25.30;;;;;;5055090;28;20252;-49
2023/05/26 06:08:09;;;;;;;15.93;14.90;;;16.60;25.60;;;;;;5055275;28;20225;-49
2023/05/26 06:10:35;;;;;;;15.23;14.10;;;16.60;25.30;;;;;;5053651;28;20241;-47
2023/05/26 06:13:01;;;;;;;16.53;15.23;;;16.60;25.40;;;;;;5053875;28;20628;-45
2023/05/26 06:15:26;;;;;;;15.77;14.50;;;16.60;25.70;;;;;;5054170;28;20512;-48
2023/05/26 06:17:52;;;;;;;15.90;14.73;;;16.60;25.30;;;;;;5051331;28;20601;-47
2023/05/26 06:20:18;;;;;;;15.67;14.47;;;16.60;26.00;;;;;;5065192;28;20179;-46
2023/05/26 06:22:43;;;;;;;14.90;14.00;;;16.60;26.10;;;;;;5071427;28;20179;-52
2023/05/26 06:25:09;;;;;;;16.23;14.77;;;16.60;26.80;;;;;;5069885;28;20636;-47
2023/05/26 06:27:35;;;;;;;15.40;14.50;;;16.60;25.90;;;;;;5071690;28;20179;-47
2023/05/26 06:30:00;;;;;;;14.97;13.70;;;16.60;26.10;;;;;;5069736;28;20210;-45
2023/05/26 06:32:26;;;;;;;16.83;15.33;;;16.70;25.30;;;;;;5066331;28;20263;-49
2023/05/26 06:34:52;;;;;;;15.10;13.87;;;16.80;24.70;;;;;;5055403;28;20220;-51
2023/05/26 06:37:17;;;;;;;16.90;15.33;;;16.80;24.50;;;;;;5054247;28;20181;-49
2023/05/26 06:39:43;;;;;;;15.67;14.40;;;16.80;24.70;;;;;;5054147;28;20542;-49
2023/05/26 06:42:08;;;;;;;15.40;14.27;;;16.80;24.70;;;;;;5052124;28;20180;-50
2023/05/26 06:44:34;;;;;;;15.67;14.53;;;16.90;25.20;;;;;;5055221;28;20191;-47
2023/05/26 06:47:00;;;;;;;16.77;15.57;;;16.90;23.80;;;;;;5054415;28;20547;-51
2023/05/26 06:49:26;;;;;;;14.80;13.70;;;16.90;23.70;;;;;;5055227;28;20179;-49
2023/05/26 06:51:51;;;;;;;15.60;14.50;;;17.00;23.40;;;;;;5054523;28;21041;-49
2023/05/26 06:54:17;;;;;;;14.73;13.83;;;17.00;23.60;;;;;;5054433;28;20573;-51
2023/05/26 06:56:42;;;;;;;14.37;13.40;;;17.10;23.90;;;;;;5053495;28;20183;-48
2023/05/26 06:59:08;;;;;;;16.80;15.53;;;17.10;23.70;;;;;;5050443;28;20618;-48
2023/05/26 07:01:34;;;;;;;17.67;16.20;;;17.00;23.10;;;;;;5051848;28;20737;-48
2023/05/26 07:04:00;;;;;;;15.77;14.57;;;17.10;24.20;;;;;;5064045;28;20177;-45
2023/05/26 07:06:25;;;;;;;16.97;15.97;;;17.10;22.90;;;;;;5060055;28;20213;-47
2023/05/26 07:08:51;;;;;;;17.20;15.90;;;17.10;23.90;;;;;;5053358;28;20205;-48
2023/05/26 07:11:16;;;;;;;15.17;14.20;;;17.10;23.30;;;;;;5053925;28;20211;-48
2023/05/26 07:13:42;;;;;;;17.53;16.23;;;17.00;23.70;;;;;;5053643;28;20180;-51
2023/05/26 07:16:08;;;;;;;18.70;17.10;;;17.10;23.70;;;;;;5066160;28;20190;-49
2023/05/26 07:18:33;;;;;;;17.33;16.10;;;17.00;23.60;;;;;;5059645;28;20700;-45
2023/05/26 07:20:59;;;;;;;16.20;15.10;;;17.00;23.80;;;;;;5053421;28;20179;-48
2023/05/26 07:23:24;;;;;;;15.87;14.90;;;17.10;24.30;;;;;;5052940;28;20663;-51
2023/05/26 07:25:50;;;;;;;17.70;16.50;;;17.10;23.90;;;;;;5053316;28;20277;-50
2023/05/26 07:28:16;;;;;;;16.27;15.00;;;17.20;23.60;;;;;;5071320;28;20632;-46
2023/05/26 07:30:41;;;;;;;18.10;16.57;;;17.20;23.70;;;;;;5069925;28;20211;-46
2023/05/26 07:33:07;;;;;;;16.70;15.37;;;17.20;23.20;;;;;;5064342;28;20304;-51
2023/05/26 07:35:33;;;;;;;17.40;16.20;;;17.20;23.60;;;;;;5057532;28;20233;-48
2023/05/26 07:37:59;;;;;;;16.43;15.37;;;17.30;23.80;;;;;;5070335;28;20182;-47
2023/05/26 07:40:24;;;;;;;15.60;14.70;;;17.30;23.30;;;;;;5069837;28;20179;-48
2023/05/26 07:42:50;;;;;;;17.07;15.93;;;17.30;23.40;;;;;;5069608;28;20410;-47
2023/05/26 07:45:16;;;;;;;17.40;16.20;;;17.40;23.50;;;;;;5069828;28;20906;-51
2023/05/26 07:47:42;;;;;;;17.40;16.10;;;17.40;23.30;;;;;;5068110;28;20183;-45
2023/05/26 07:50:08;;;;;;;16.80;15.60;;;17.40;23.10;;;;;;5054244;28;20175;-48
2023/05/26 07:52:34;;;;;;;16.00;15.00;;;17.50;23.10;;;;;;5069214;28;20211;-48
2023/05/26 07:54:59;;;;;;;17.47;16.27;;;17.60;24.20;;;;;;5069758;28;20413;-48
2023/05/26 07:57:25;;;;;;;17.30;16.10;;;17.60;23.70;;;;;;5052443;28;20421;-48
2023/05/26 07:59:51;;;;;;;16.80;15.50;;;17.70;22.80;;;;;;5052950;28;20202;-45
2023/05/26 08:02:17;;;;;;;16.40;15.00;;;17.70;22.50;;;;;;5052382;28;20179;-47
2023/05/26 08:04:42;;;;;;;17.23;16.07;;;17.70;23.50;;;;;;5052914;28;20340;-49
2023/05/26 08:07:08;;;;;;;17.00;15.97;;;17.70;23.20;;;;;;5070709;28;20240;-48
2023/05/26 08:09:34;;;;;;;15.87;14.97;;;17.80;23.40;;;;;;5052580;28;20183;-49
2023/05/26 08:11:59;;;;;;;17.13;15.60;;;17.90;23.10;;;;;;5050686;28;20791;-51
2023/05/26 08:14:26;;;;;;;16.20;15.10;;;17.90;22.50;;;;;;5052749;28;20183;-48
2023/05/26 08:16:52;;;;;;;16.17;14.97;;;17.90;23.20;;;;;;5068716;28;20554;-48
2023/05/26 08:19:18;;;;;;;15.90;14.37;;;18.00;22.90;;;;;;5056506;28;20425;-51
2023/05/26 08:21:43;;;;;;;15.70;14.57;;;18.00;22.80;;;;;;5051984;28;20422;-49
2023/05/26 08:24:09;;;;;;;16.47;15.10;;;18.00;21.90;;;;;;5052008;28;20288;-45
2023/05/26 08:26:35;;;;;;;18.27;16.93;;;18.10;21.60;;;;;;5052634;28;20179;-47
2023/05/26 08:29:00;;;;;;;15.80;14.80;;;18.20;21.70;;;;;;5052932;28;20553;-47
2023/05/26 08:31:26;;;;;;;16.97;15.57;;;18.30;21.80;;;;;;5051969;28;20211;-48
2023/05/26 08:33:53;;;;;;;16.80;15.47;;;18.20;22.40;;;;;;5052772;28;20187;-46
2023/05/26 08:36:19;;;;;;;16.97;15.67;;;18.30;22.20;;;;;;5061542;28;20179;-50
2023/05/26 08:38:45;;;;;;;16.20;14.77;;;18.30;22.50;;;;;;5052987;28;20422;-53
2023/05/26 08:41:17;;;;;;;16.97;15.77;;;18.30;23.00;;;;;;5052030;28;20422;-49
2023/05/26 08:43:56;;;;;;;16.37;15.27;;;18.50;21.60;;;;;;5052741;28;20429;-47
2023/05/26 08:46:22;;;;;;;17.53;16.00;;;18.60;21.30;;;;;;5052521;28;20512;-50
2023/05/26 08:48:51;;;;;;;17.37;16.17;;;18.60;21.10;;;;;;5052523;28;20426;-51
2023/05/26 08:51:16;;;;;;;15.77;14.47;;;18.60;21.30;;;;;;5051746;28;20965;-45
2023/05/26 08:53:47;;;;;;;16.80;15.67;;;18.60;23.00;;;;;;5056389;28;20432;-48
2023/05/26 08:56:13;;;;;;;17.03;15.77;;;18.60;21.60;;;;;;5059500;28;20679;-49
2023/05/26 08:58:39;;;;;;;16.60;15.20;;;18.70;21.80;;;;;;5052474;28;20457;-51
2023/05/26 09:01:05;;;;;;;16.73;15.10;;;18.70;21.50;;;;;;5051795;28;20428;-47
2023/05/26 09:03:31;;;;;;;17.17;15.67;;;18.80;21.70;;;;;;5052207;28;20421;-49
2023/05/26 09:05:57;;;;;;;14.43;13.07;;;18.80;21.40;;;;;;5060699;28;20460;-50
2023/05/26 09:08:23;;;;;;;16.93;15.43;;;18.90;21.70;;;;;;5068841;28;20425;-49
2023/05/26 09:10:49;;;;;;;15.30;14.20;;;18.90;21.30;;;;;;5072080;28;20624;-48
2023/05/26 09:13:17;;;;;;;14.93;13.67;;;19.00;21.80;;;;;;5072468;28;20445;-51
2023/05/26 09:15:43;;;;;;;16.00;14.90;;;19.00;21.80;;;;;;5072998;28;20483;-49
2023/05/26 09:18:13;;;;;;;13.77;12.73;;;19.00;21.00;;;;;;5072743;28;20432;-52
2023/05/26 09:20:47;;;;;;;13.90;12.90;;;19.10;21.40;;;;;;5055838;28;20456;-49
2023/05/26 09:23:14;;;;;;;15.30;14.10;;;19.20;21.30;;;;;;5055330;28;20888;-49
2023/05/26 09:25:41;;;;;;;15.53;14.43;;;19.20;21.20;;;;;;5055982;28;20765;-52
2023/05/26 09:28:09;;;;;;;16.07;14.87;;;19.30;20.80;;;;;;5055653;28;20417;-51
2023/05/26 09:30:40;;;;;;;15.90;14.40;;;19.30;20.70;;;;;;5055349;28;20433;-50
2023/05/26 09:33:08;;;;;;;14.00;12.77;;;19.30;20.60;;;;;;5055186;28;20412;-47
2023/05/26 09:35:39;;;;;;;13.63;12.50;;;19.30;20.60;;;;;;5055539;28;20413;-49
2023/05/26 09:38:06;;;;;;;16.33;12.17;;;19.50;20.40;;;;;;5055903;28;20482;-52
2023/05/26 09:40:32;;;;;;;13.40;12.30;;;19.50;20.50;;;;;;5055404;28;20422;-48
2023/05/26 09:42:58;;;;;;;13.67;12.67;;;19.60;20.10;;;;;;5055160;28;20438;-48
2023/05/26 09:45:24;;;;;;;13.50;12.30;;;19.70;19.80;;;;;;5055353;28;20449;-46
2023/05/26 09:47:57;;;;;;;14.17;13.17;;;19.90;19.70;;;;;;5055561;28;20437;-46
2023/05/26 09:50:23;;;;;;;14.73;13.23;;;20.10;19.30;;;;;;5055249;28;20233;-49
2023/05/26 09:52:49;;;;;;;13.10;12.10;;;20.30;18.60;;;;;;5054950;28;20418;-47
2023/05/26 09:55:18;;;;;;;13.40;12.27;;;20.60;18.20;;;;;;5055161;28;20417;-48
2023/05/26 09:57:47;;;;;;;12.90;11.90;;;20.70;18.00;;;;;;5055101;28;20422;-48
2023/05/26 10:00:16;;;;;;;14.53;12.47;;;20.80;19.10;;;;;;5055393;28;20439;-45
2023/05/26 10:02:42;;;;;;;12.93;11.90;;;20.90;18.10;;;;;;5054412;28;20906;-49
2023/05/26 10:05:09;;;;;;;13.40;12.33;;;21.00;17.50;;;;;;5054746;28;20432;-50
2023/05/26 10:07:36;;;;;;;14.40;13.30;;;21.10;17.80;;;;;;5054206;28;20438;-49
2023/05/26 10:10:03;;;;;;;14.93;13.20;;;21.10;17.00;;;;;;5054974;28;20444;-49
2023/05/26 10:12:31;;;;;;;12.23;11.33;;;21.20;17.70;;;;;;5053942;28;20456;-50
2023/05/26 10:14:57;;;;;;;11.70;10.70;;;21.40;18.10;;;;;;5055433;28;20421;-50
2023/05/26 10:17:25;;;;;;;12.93;12.13;;;21.50;17.40;;;;;;5055633;28;20425;-51
2023/05/26 10:19:52;;;;;;;12.70;11.80;;;21.60;17.00;;;;;;5053275;28;20414;-49
2023/05/26 10:22:30;;;;;;;12.60;11.60;;;21.70;16.90;;;;;;5069457;28;20529;-48
2023/05/26 10:25:06;;;;;;;12.10;11.20;;;21.70;17.00;;;;;;5069771;28;20421;-49
2023/05/26 10:27:44;;;;;;;14.73;11.63;;;21.80;16.80;;;;;;5069275;28;20501;-48
2023/05/26 10:30:15;;;;;;;12.27;11.37;;;21.80;16.40;;;;;;5069555;28;20938;-48
2023/05/26 10:32:45;;;;;;;14.90;12.90;;;21.70;16.50;;;;;;5068746;28;20461;-50
2023/05/26 10:35:21;;;;;;;19.70;13.60;;;21.70;17.00;;;;;;5055310;28;20455;-46
2023/05/26 10:38:02;;;;;;;13.13;11.93;;;21.70;17.00;;;;;;5054216;28;20428;-52
2023/05/26 10:40:33;;;;;;;12.97;12.17;;;21.70;17.10;;;;;;5071101;28;20413;-50
2023/05/26 10:43:00;;;;;;;13.50;12.30;;;21.60;17.30;;;;;;5071035;28;20450;-47
2023/05/26 10:45:32;;;;;;;15.13;13.63;;;21.60;17.30;;;;;;5072089;28;20918;-49
2023/05/26 10:48:10;;;;;;;14.87;13.77;;;21.60;17.50;;;;;;5056136;28;20418;-48
2023/05/26 10:50:54;;;;;;;15.23;11.50;;;21.50;17.40;;;;;;5055009;28;20788;-48
2023/05/26 10:53:23;;;;;;;13.13;12.17;;;21.60;17.60;;;;;;5054625;28;20408;-47
2023/05/26 10:55:58;;;;;;;13.50;12.30;;;21.60;16.90;;;;;;5055027;28;20821;-49
2023/05/26 10:58:31;;;;;;;12.77;11.63;;;21.70;16.30;;;;;;5055196;28;20784;-50
2023/05/26 11:01:06;;;;;;;12.37;11.17;;;21.80;16.10;;;;;;5054845;28;20547;-47
2023/05/26 11:03:33;;;;;;;11.13;10.37;;;21.80;15.70;;;;;;5071404;28;20416;-49
2023/05/26 11:05:59;;;;;;;10.80;9.93;;;21.80;15.60;;;;;;5071593;28;20509;-49
2023/05/26 11:08:25;;;;;;;11.17;10.53;;;21.80;15.80;;;;;;5070444;28;20909;-49
2023/05/26 11:11:02;;;;;;;11.67;10.70;;;21.80;16.40;;;;;;5036728;28;20462;-47
2023/05/26 11:13:49;;;;;;;13.10;11.80;;;21.90;16.30;;;;;;5034700;28;20459;-46
2023/05/26 11:16:24;;;;;;;13.00;12.10;;;21.90;16.20;;;;;;5037463;28;20492;-48
2023/05/26 11:18:56;;;;;;;12.73;11.60;;;21.80;16.30;;;;;;5055008;28;20417;-49
2023/05/26 11:21:29;;;;;;;11.53;10.63;;;21.80;16.80;;;;;;5053460;28;20823;-48
2023/05/26 11:23:57;;;;;;;12.03;11.23;;;21.70;16.70;;;;;;5062342;28;20490;-49
2023/05/26 11:26:24;;;;;;;11.50;10.60;;;21.80;16.40;;;;;;5070947;28;20471;-47
2023/05/26 11:28:50;;;;;;;12.53;11.50;;;21.80;16.10;;;;;;5057716;28;20453;-47
2023/05/26 11:31:18;;;;;;;12.30;11.50;;;21.90;15.90;;;;;;5053211;28;20507;-50
2023/05/26 11:33:45;;;;;;;12.37;11.40;;;22.00;15.40;;;;;;5053795;28;20417;-48
2023/05/26 11:36:15;;;;;;;10.43;9.83;;;22.00;15.50;;;;;;5053794;28;20498;-49
2023/05/26 11:38:43;;;;;;;12.00;11.10;;;22.00;15.40;;;;;;5085861;28;20457;-49
2023/05/26 11:41:10;;;;;;;11.80;10.83;;;21.90;15.10;;;;;;5064916;28;20425;-46
2023/05/26 11:43:37;;;;;;;12.30;11.00;;;21.90;15.30;;;;;;5054093;28;20913;-51
2023/05/26 11:46:06;;;;;;;10.83;10.10;;;21.80;15.10;;;;;;5054369;28;20507;-47
2023/05/26 11:48:39;;;;;;;12.23;11.13;;;21.70;16.10;;;;;;5071858;28;20432;-48
2023/05/26 11:51:09;;;;;;;12.20;11.10;;;21.70;16.20;;;;;;5070131;28;20500;-49
2023/05/26 11:53:35;;;;;;;11.93;11.13;;;21.80;16.20;;;;;;5070415;28;20947;-45
2023/05/26 11:56:03;;;;;;;11.03;10.37;;;21.80;16.10;;;;;;5063001;28;20422;-50
2023/05/26 11:58:28;;;;;;;12.00;10.93;;;21.80;16.30;;;;;;5058205;28;20836;-47
2023/05/26 12:00:59;;;;;;;12.30;11.27;;;21.70;14.60;;;;;;5071306;28;20417;-48
2023/05/26 12:03:25;;;;;;;11.90;11.00;;;21.70;15.70;;;;;;5055247;28;20183;-45
2023/05/26 12:05:50;;;;;;;11.00;10.30;;;21.80;15.90;;;;;;5053619;28;20428;-50
2023/05/26 12:08:16;;;;;;;11.87;10.87;;;21.80;16.20;;;;;;5056117;28;20212;-52
2023/05/26 12:10:42;;;;;;;12.57;11.50;;;21.80;16.00;;;;;;5051922;28;20643;-63
2023/05/26 12:13:08;;;;;;;11.77;10.97;;;21.70;15.30;;;;;;5064789;28;20195;-49
2023/05/26 12:15:34;;;;;;;11.90;10.93;;;21.70;15.70;;;;;;5068873;28;20909;-46
2023/05/26 12:18:02;;;;;;;11.30;10.60;;;21.80;16.10;;;;;;5057350;28;20274;-48
2023/05/26 12:20:28;;;;;;;11.93;11.03;;;21.70;16.10;;;;;;5052587;28;20651;-47
2023/05/26 12:23:01;;;;;;;11.53;10.73;;;21.70;16.40;;;;;;5052440;28;20421;-49
2023/05/26 12:25:31;;;;;;;11.37;10.50;;;21.70;16.00;;;;;;5053697;28;20597;-49
2023/05/26 12:27:57;;;;;;;11.20;10.60;;;21.70;15.90;;;;;;5053821;28;20451;-51